sensor_id;sensor_type;location;lat;lon;timestamp;P1;durP1;ratioP1;P2;durP2;ratioP2
52922;SDS011;38796;42.702;23.306;2023-04-03T00:01:36;6.57;;;2.13;;
52922;SDS011;38796;42.702;23.306;2023-04-03T00:03:34;14.15;;;2.58;;
52922;SDS011;38796;42.702;23.306;2023-04-03T00:05:33;1.48;;;0.77;;
52922;SDS011;38796;42.702;23.306;2023-04-03T00:07:31;1.77;;;0.32;;
52922;SDS011;38796;42.702;23.306;2023-04-03T00:09:29;1.42;;;0.80;;
52922;SDS011;38796;42.702;23.306;2023-04-03T00:11:27;2.15;;;0.98;;
52922;SDS011;38796;42.702;23.306;2023-04-03T00:13:26;0.82;;;0.57;;
52922;SDS011;38796;42.702;23.306;2023-04-03T00:15:24;1.52;;;0.30;;
52922;SDS011;38796;42.702;23.306;2023-04-03T00:17:22;0.55;;;0.45;;
52922;SDS011;38796;42.702;23.306;2023-04-03T00:19:20;1.15;;;0.80;;
52922;SDS011;38796;42.702;23.306;2023-04-03T00:21:18;0.88;;;0.88;;
52922;SDS011;38796;42.702;23.306;2023-04-03T00:23:16;1.20;;;0.68;;
52922;SDS011;38796;42.702;23.306;2023-04-03T00:25:14;1.77;;;0.52;;
52922;SDS011;38796;42.702;23.306;2023-04-03T00:27:12;3.30;;;1.27;;
52922;SDS011;38796;42.702;23.306;2023-04-03T00:29:11;2.28;;;1.60;;
52922;SDS011;38796;42.702;23.306;2023-04-03T00:31:09;4.80;;;0.93;;
52922;SDS011;38796;42.702;23.306;2023-04-03T00:33:08;0.85;;;0.32;;
52922;SDS011;38796;42.702;23.306;2023-04-03T00:35:06;0.82;;;0.80;;
52922;SDS011;38796;42.702;23.306;2023-04-03T00:37:04;2.05;;;0.45;;
52922;SDS011;38796;42.702;23.306;2023-04-03T00:39:02;0.85;;;0.70;;
52922;SDS011;38796;42.702;23.306;2023-04-03T00:41:01;0.65;;;0.35;;
52922;SDS011;38796;42.702;23.306;2023-04-03T00:42:59;1.17;;;0.28;;
52922;SDS011;38796;42.702;23.306;2023-04-03T00:47:15;1.77;;;0.57;;
52922;SDS011;38796;42.702;23.306;2023-04-03T00:49:14;0.82;;;0.28;;
52922;SDS011;38796;42.702;23.306;2023-04-03T00:51:12;1.80;;;0.50;;
52922;SDS011;38796;42.702;23.306;2023-04-03T00:53:12;0.70;;;0.63;;
52922;SDS011;38796;42.702;23.306;2023-04-03T00:55:10;1.38;;;0.55;;
52922;SDS011;38796;42.702;23.306;2023-04-03T00:57:09;2.42;;;0.73;;
52922;SDS011;38796;42.702;23.306;2023-04-03T00:59:08;2.65;;;0.32;;
52922;SDS011;38796;42.702;23.306;2023-04-03T01:01:08;1.50;;;0.52;;
52922;SDS011;38796;42.702;23.306;2023-04-03T01:03:09;2.75;;;1.02;;
52922;SDS011;38796;42.702;23.306;2023-04-03T01:05:08;0.22;;;0.20;;
52922;SDS011;38796;42.702;23.306;2023-04-03T01:07:08;1.45;;;0.63;;
52922;SDS011;38796;42.702;23.306;2023-04-03T01:09:06;1.17;;;0.30;;
52922;SDS011;38796;42.702;23.306;2023-04-03T01:11:04;0.45;;;0.32;;
52922;SDS011;38796;42.702;23.306;2023-04-03T01:13:08;2.50;;;0.73;;
52922;SDS011;38796;42.702;23.306;2023-04-03T01:15:15;1.67;;;0.63;;
52922;SDS011;38796;42.702;23.306;2023-04-03T01:17:25;0.80;;;0.55;;
52922;SDS011;38796;42.702;23.306;2023-04-03T01:19:25;0.13;;;0.10;;
52922;SDS011;38796;42.702;23.306;2023-04-03T01:21:27;1.48;;;0.55;;
52922;SDS011;38796;42.702;23.306;2023-04-03T01:23:43;4.05;;;1.45;;
52922;SDS011;38796;42.702;23.306;2023-04-03T01:25:45;2.83;;;2.58;;
52922;SDS011;38796;42.702;23.306;2023-04-03T01:27:44;1.75;;;1.60;;
52922;SDS011;38796;42.702;23.306;2023-04-03T01:29:42;2.08;;;0.75;;
52922;SDS011;38796;42.702;23.306;2023-04-03T01:31:47;0.77;;;0.22;;
52922;SDS011;38796;42.702;23.306;2023-04-03T01:33:45;0.30;;;0.20;;
52922;SDS011;38796;42.702;23.306;2023-04-03T01:35:43;0.20;;;0.20;;
52922;SDS011;38796;42.702;23.306;2023-04-03T01:37:41;0.20;;;0.10;;
52922;SDS011;38796;42.702;23.306;2023-04-03T01:39:39;0.95;;;0.30;;
52922;SDS011;38796;42.702;23.306;2023-04-03T01:41:37;0.00;;;0.00;;
52922;SDS011;38796;42.702;23.306;2023-04-03T01:43:43;0.20;;;0.00;;
52922;SDS011;38796;42.702;23.306;2023-04-03T01:45:41;0.55;;;0.30;;
52922;SDS011;38796;42.702;23.306;2023-04-03T01:47:41;2.47;;;0.30;;
52922;SDS011;38796;42.702;23.306;2023-04-03T01:49:39;0.17;;;0.10;;
52922;SDS011;38796;42.702;23.306;2023-04-03T01:51:38;0.00;;;0.00;;
52922;SDS011;38796;42.702;23.306;2023-04-03T01:53:36;0.13;;;0.13;;
52922;SDS011;38796;42.702;23.306;2023-04-03T01:55:34;0.10;;;0.10;;
52922;SDS011;38796;42.702;23.306;2023-04-03T01:57:32;0.20;;;0.10;;
52922;SDS011;38796;42.702;23.306;2023-04-03T01:59:30;0.38;;;0.15;;
52922;SDS011;38796;42.702;23.306;2023-04-03T02:01:28;0.05;;;0.05;;
52922;SDS011;38796;42.702;23.306;2023-04-03T02:03:27;0.30;;;0.20;;
52922;SDS011;38796;42.702;23.306;2023-04-03T02:05:26;0.25;;;0.10;;
52922;SDS011;38796;42.702;23.306;2023-04-03T02:07:24;0.63;;;0.28;;
52922;SDS011;38796;42.702;23.306;2023-04-03T02:09:22;0.15;;;0.10;;
52922;SDS011;38796;42.702;23.306;2023-04-03T02:11:21;0.30;;;0.10;;
52922;SDS011;38796;42.702;23.306;2023-04-03T02:13:19;0.77;;;0.05;;
52922;SDS011;38796;42.702;23.306;2023-04-03T02:15:17;0.32;;;0.10;;
52922;SDS011;38796;42.702;23.306;2023-04-03T02:17:16;0.08;;;0.05;;
52922;SDS011;38796;42.702;23.306;2023-04-03T02:19:15;0.30;;;0.08;;
52922;SDS011;38796;42.702;23.306;2023-04-03T02:21:13;0.05;;;0.00;;
52922;SDS011;38796;42.702;23.306;2023-04-03T02:23:11;0.00;;;0.00;;
52922;SDS011;38796;42.702;23.306;2023-04-03T02:25:09;0.63;;;0.25;;
52922;SDS011;38796;42.702;23.306;2023-04-03T02:27:09;0.10;;;0.10;;
52922;SDS011;38796;42.702;23.306;2023-04-03T02:29:07;0.00;;;0.00;;
52922;SDS011;38796;42.702;23.306;2023-04-03T02:31:05;0.13;;;0.00;;
52922;SDS011;38796;42.702;23.306;2023-04-03T02:33:05;0.52;;;0.20;;
52922;SDS011;38796;42.702;23.306;2023-04-03T02:35:05;0.10;;;0.00;;
52922;SDS011;38796;42.702;23.306;2023-04-03T02:37:03;0.00;;;0.00;;
52922;SDS011;38796;42.702;23.306;2023-04-03T02:39:02;0.00;;;0.00;;
52922;SDS011;38796;42.702;23.306;2023-04-03T02:41:00;0.45;;;0.20;;
52922;SDS011;38796;42.702;23.306;2023-04-03T02:42:59;2.47;;;0.40;;
52922;SDS011;38796;42.702;23.306;2023-04-03T02:44:58;0.75;;;0.28;;
52922;SDS011;38796;42.702;23.306;2023-04-03T02:46:56;2.83;;;0.52;;
52922;SDS011;38796;42.702;23.306;2023-04-03T02:48:54;2.38;;;0.50;;
52922;SDS011;38796;42.702;23.306;2023-04-03T02:50:54;0.20;;;0.00;;
52922;SDS011;38796;42.702;23.306;2023-04-03T02:52:52;0.47;;;0.20;;
52922;SDS011;38796;42.702;23.306;2023-04-03T02:54:50;0.98;;;0.08;;
52922;SDS011;38796;42.702;23.306;2023-04-03T02:56:48;0.05;;;0.00;;
52922;SDS011;38796;42.702;23.306;2023-04-03T02:58:47;0.52;;;0.15;;
52922;SDS011;38796;42.702;23.306;2023-04-03T03:00:46;0.55;;;0.22;;
52922;SDS011;38796;42.702;23.306;2023-04-03T03:02:44;0.55;;;0.55;;
52922;SDS011;38796;42.702;23.306;2023-04-03T03:04:42;0.20;;;0.10;;
52922;SDS011;38796;42.702;23.306;2023-04-03T03:06:42;0.10;;;0.00;;
52922;SDS011;38796;42.702;23.306;2023-04-03T03:08:40;3.20;;;0.73;;
52922;SDS011;38796;42.702;23.306;2023-04-03T03:10:38;1.08;;;0.25;;
52922;SDS011;38796;42.702;23.306;2023-04-03T03:12:36;1.23;;;0.68;;
52922;SDS011;38796;42.702;23.306;2023-04-03T03:14:34;3.78;;;0.10;;
52922;SDS011;38796;42.702;23.306;2023-04-03T03:16:32;0.40;;;0.32;;
52922;SDS011;38796;42.702;23.306;2023-04-03T03:18:30;1.80;;;0.10;;
52922;SDS011;38796;42.702;23.306;2023-04-03T03:20:28;0.10;;;0.08;;
52922;SDS011;38796;42.702;23.306;2023-04-03T03:22:29;0.10;;;0.10;;
52922;SDS011;38796;42.702;23.306;2023-04-03T03:24:28;0.30;;;0.20;;
52922;SDS011;38796;42.702;23.306;2023-04-03T03:26:26;0.50;;;0.47;;
52922;SDS011;38796;42.702;23.306;2023-04-03T03:28:24;1.52;;;0.10;;
52922;SDS011;38796;42.702;23.306;2023-04-03T03:30:22;5.75;;;1.42;;
52922;SDS011;38796;42.702;23.306;2023-04-03T03:32:20;0.70;;;0.22;;
52922;SDS011;38796;42.702;23.306;2023-04-03T03:34:18;0.40;;;0.20;;
52922;SDS011;38796;42.702;23.306;2023-04-03T03:36:16;0.32;;;0.13;;
52922;SDS011;38796;42.702;23.306;2023-04-03T03:38:15;0.55;;;0.40;;
52922;SDS011;38796;42.702;23.306;2023-04-03T03:40:13;1.75;;;0.40;;
52922;SDS011;38796;42.702;23.306;2023-04-03T03:42:14;2.08;;;0.40;;
52922;SDS011;38796;42.702;23.306;2023-04-03T03:44:12;0.65;;;0.65;;
52922;SDS011;38796;42.702;23.306;2023-04-03T03:46:11;0.35;;;0.30;;
52922;SDS011;38796;42.702;23.306;2023-04-03T03:48:09;11.05;;;0.75;;
52922;SDS011;38796;42.702;23.306;2023-04-03T03:50:08;1.15;;;0.57;;
52922;SDS011;38796;42.702;23.306;2023-04-03T03:52:06;0.60;;;0.50;;
52922;SDS011;38796;42.702;23.306;2023-04-03T03:54:09;1.08;;;0.57;;
52922;SDS011;38796;42.702;23.306;2023-04-03T03:56:07;0.70;;;0.52;;
52922;SDS011;38796;42.702;23.306;2023-04-03T03:58:07;4.22;;;2.53;;
52922;SDS011;38796;42.702;23.306;2023-04-03T04:00:06;2.47;;;1.45;;
52922;SDS011;38796;42.702;23.306;2023-04-03T04:02:10;1.83;;;1.73;;
52922;SDS011;38796;42.702;23.306;2023-04-03T04:04:11;0.57;;;0.32;;
52922;SDS011;38796;42.702;23.306;2023-04-03T04:06:08;2.22;;;0.82;;
52922;SDS011;38796;42.702;23.306;2023-04-03T04:08:06;2.38;;;1.65;;
52922;SDS011;38796;42.702;23.306;2023-04-03T04:10:06;3.15;;;1.23;;
52922;SDS011;38796;42.702;23.306;2023-04-03T04:12:05;1.55;;;0.45;;
52922;SDS011;38796;42.702;23.306;2023-04-03T04:14:04;2.28;;;2.08;;
52922;SDS011;38796;42.702;23.306;2023-04-03T04:16:03;4.38;;;2.65;;
52922;SDS011;38796;42.702;23.306;2023-04-03T04:18:02;4.10;;;3.75;;
52922;SDS011;38796;42.702;23.306;2023-04-03T04:20:01;2.80;;;2.60;;
52922;SDS011;38796;42.702;23.306;2023-04-03T04:22:02;5.28;;;2.00;;
52922;SDS011;38796;42.702;23.306;2023-04-03T04:24:01;1.58;;;1.48;;
52922;SDS011;38796;42.702;23.306;2023-04-03T04:26:01;2.10;;;1.27;;
52922;SDS011;38796;42.702;23.306;2023-04-03T04:28:03;2.70;;;1.30;;
52922;SDS011;38796;42.702;23.306;2023-04-03T04:30:01;0.80;;;0.80;;
52922;SDS011;38796;42.702;23.306;2023-04-03T04:32:01;2.55;;;0.70;;
52922;SDS011;38796;42.702;23.306;2023-04-03T04:33:59;1.60;;;0.43;;
52922;SDS011;38796;42.702;23.306;2023-04-03T04:35:57;1.80;;;1.25;;
52922;SDS011;38796;42.702;23.306;2023-04-03T04:37:55;10.38;;;1.70;;
52922;SDS011;38796;42.702;23.306;2023-04-03T04:39:53;0.98;;;0.98;;
52922;SDS011;38796;42.702;23.306;2023-04-03T04:41:52;3.05;;;0.60;;
52922;SDS011;38796;42.702;23.306;2023-04-03T04:43:51;2.35;;;0.77;;
52922;SDS011;38796;42.702;23.306;2023-04-03T04:45:57;1.23;;;0.60;;
52922;SDS011;38796;42.702;23.306;2023-04-03T04:47:57;1.83;;;1.50;;
52922;SDS011;38796;42.702;23.306;2023-04-03T04:49:55;3.30;;;1.05;;
52922;SDS011;38796;42.702;23.306;2023-04-03T04:51:54;1.25;;;1.15;;
52922;SDS011;38796;42.702;23.306;2023-04-03T04:53:56;4.88;;;1.15;;
52922;SDS011;38796;42.702;23.306;2023-04-03T04:55:55;2.85;;;1.13;;
52922;SDS011;38796;42.702;23.306;2023-04-03T04:57:54;1.40;;;0.95;;
52922;SDS011;38796;42.702;23.306;2023-04-03T04:59:52;12.68;;;2.33;;
52922;SDS011;38796;42.702;23.306;2023-04-03T05:01:50;8.45;;;1.75;;
52922;SDS011;38796;42.702;23.306;2023-04-03T05:03:49;1.85;;;0.73;;
52922;SDS011;38796;42.702;23.306;2023-04-03T05:05:47;2.67;;;0.70;;
52922;SDS011;38796;42.702;23.306;2023-04-03T05:07:46;4.60;;;1.02;;
52922;SDS011;38796;42.702;23.306;2023-04-03T05:09:44;8.30;;;2.17;;
52922;SDS011;38796;42.702;23.306;2023-04-03T05:11:45;2.30;;;1.38;;
52922;SDS011;38796;42.702;23.306;2023-04-03T05:13:46;3.67;;;2.03;;
52922;SDS011;38796;42.702;23.306;2023-04-03T05:15:49;0.80;;;0.70;;
52922;SDS011;38796;42.702;23.306;2023-04-03T05:17:48;2.58;;;0.95;;
52922;SDS011;38796;42.702;23.306;2023-04-03T05:19:46;4.63;;;2.35;;
52922;SDS011;38796;42.702;23.306;2023-04-03T05:21:44;16.05;;;2.67;;
52922;SDS011;38796;42.702;23.306;2023-04-03T05:23:46;2.35;;;1.30;;
52922;SDS011;38796;42.702;23.306;2023-04-03T05:25:43;2.03;;;1.33;;
52922;SDS011;38796;42.702;23.306;2023-04-03T05:27:43;3.45;;;1.70;;
52922;SDS011;38796;42.702;23.306;2023-04-03T05:29:43;0.98;;;0.95;;
52922;SDS011;38796;42.702;23.306;2023-04-03T05:31:46;2.38;;;1.10;;
52922;SDS011;38796;42.702;23.306;2023-04-03T05:33:46;2.20;;;1.85;;
52922;SDS011;38796;42.702;23.306;2023-04-03T05:35:46;5.20;;;1.67;;
52922;SDS011;38796;42.702;23.306;2023-04-03T05:37:49;2.45;;;1.52;;
52922;SDS011;38796;42.702;23.306;2023-04-03T05:39:47;2.08;;;1.23;;
52922;SDS011;38796;42.702;23.306;2023-04-03T05:41:45;2.42;;;1.42;;
52922;SDS011;38796;42.702;23.306;2023-04-03T05:43:43;2.38;;;0.95;;
52922;SDS011;38796;42.702;23.306;2023-04-03T05:45:42;6.60;;;3.15;;
52922;SDS011;38796;42.702;23.306;2023-04-03T05:47:43;1.75;;;0.88;;
52922;SDS011;38796;42.702;23.306;2023-04-03T05:49:41;5.75;;;1.88;;
52922;SDS011;38796;42.702;23.306;2023-04-03T05:51:44;4.30;;;1.70;;
52922;SDS011;38796;42.702;23.306;2023-04-03T05:53:52;4.32;;;1.55;;
52922;SDS011;38796;42.702;23.306;2023-04-03T05:55:51;2.40;;;2.10;;
52922;SDS011;38796;42.702;23.306;2023-04-03T05:57:50;2.05;;;1.55;;
52922;SDS011;38796;42.702;23.306;2023-04-03T05:59:49;4.03;;;1.45;;
52922;SDS011;38796;42.702;23.306;2023-04-03T06:01:50;2.58;;;1.25;;
52922;SDS011;38796;42.702;23.306;2023-04-03T06:03:48;3.70;;;1.20;;
52922;SDS011;38796;42.702;23.306;2023-04-03T06:05:47;2.67;;;1.73;;
52922;SDS011;38796;42.702;23.306;2023-04-03T06:07:45;1.48;;;0.65;;
52922;SDS011;38796;42.702;23.306;2023-04-03T06:09:43;5.35;;;1.52;;
52922;SDS011;38796;42.702;23.306;2023-04-03T06:11:41;3.95;;;1.75;;
52922;SDS011;38796;42.702;23.306;2023-04-03T06:13:39;1.25;;;1.15;;
52922;SDS011;38796;42.702;23.306;2023-04-03T06:15:37;1.13;;;0.68;;
52922;SDS011;38796;42.702;23.306;2023-04-03T06:17:39;1.75;;;1.40;;
52922;SDS011;38796;42.702;23.306;2023-04-03T06:19:37;1.23;;;0.85;;
52922;SDS011;38796;42.702;23.306;2023-04-03T06:21:35;0.68;;;0.57;;
52922;SDS011;38796;42.702;23.306;2023-04-03T06:23:33;5.18;;;0.85;;
52922;SDS011;38796;42.702;23.306;2023-04-03T06:25:32;3.47;;;2.38;;
52922;SDS011;38796;42.702;23.306;2023-04-03T06:27:30;1.50;;;0.70;;
52922;SDS011;38796;42.702;23.306;2023-04-03T06:29:28;0.98;;;0.65;;
52922;SDS011;38796;42.702;23.306;2023-04-03T06:31:26;1.95;;;1.23;;
52922;SDS011;38796;42.702;23.306;2023-04-03T06:33:25;1.52;;;1.08;;
52922;SDS011;38796;42.702;23.306;2023-04-03T06:35:23;3.80;;;2.10;;
52922;SDS011;38796;42.702;23.306;2023-04-03T06:37:22;1.05;;;0.57;;
52922;SDS011;38796;42.702;23.306;2023-04-03T06:39:22;3.17;;;0.80;;
52922;SDS011;38796;42.702;23.306;2023-04-03T06:41:20;0.88;;;0.63;;
52922;SDS011;38796;42.702;23.306;2023-04-03T06:43:18;2.88;;;1.08;;
52922;SDS011;38796;42.702;23.306;2023-04-03T06:45:19;2.22;;;1.02;;
52922;SDS011;38796;42.702;23.306;2023-04-03T06:47:18;1.70;;;1.27;;
52922;SDS011;38796;42.702;23.306;2023-04-03T06:49:17;3.17;;;1.45;;
52922;SDS011;38796;42.702;23.306;2023-04-03T06:51:17;6.95;;;2.38;;
52922;SDS011;38796;42.702;23.306;2023-04-03T06:53:16;4.75;;;1.88;;
52922;SDS011;38796;42.702;23.306;2023-04-03T06:55:14;2.05;;;1.73;;
52922;SDS011;38796;42.702;23.306;2023-04-03T06:57:12;1.95;;;1.45;;
52922;SDS011;38796;42.702;23.306;2023-04-03T06:59:12;3.72;;;1.10;;
52922;SDS011;38796;42.702;23.306;2023-04-03T07:01:12;1.60;;;1.25;;
52922;SDS011;38796;42.702;23.306;2023-04-03T07:03:10;2.58;;;0.88;;
52922;SDS011;38796;42.702;23.306;2023-04-03T07:05:09;6.20;;;1.02;;
52922;SDS011;38796;42.702;23.306;2023-04-03T07:07:08;2.78;;;1.45;;
52922;SDS011;38796;42.702;23.306;2023-04-03T07:09:06;6.82;;;1.50;;
52922;SDS011;38796;42.702;23.306;2023-04-03T07:11:04;3.10;;;1.27;;
52922;SDS011;38796;42.702;23.306;2023-04-03T07:13:02;4.68;;;1.33;;
52922;SDS011;38796;42.702;23.306;2023-04-03T07:15:00;3.47;;;2.42;;
52922;SDS011;38796;42.702;23.306;2023-04-03T07:16:58;1.30;;;0.85;;
52922;SDS011;38796;42.702;23.306;2023-04-03T07:18:56;2.53;;;1.48;;
52922;SDS011;38796;42.702;23.306;2023-04-03T07:20:56;4.72;;;1.45;;
52922;SDS011;38796;42.702;23.306;2023-04-03T07:22:54;5.82;;;1.23;;
52922;SDS011;38796;42.702;23.306;2023-04-03T07:24:52;3.80;;;1.52;;
52922;SDS011;38796;42.702;23.306;2023-04-03T07:26:50;1.67;;;1.42;;
52922;SDS011;38796;42.702;23.306;2023-04-03T07:28:49;6.93;;;2.15;;
52922;SDS011;38796;42.702;23.306;2023-04-03T07:30:48;5.40;;;1.88;;
52922;SDS011;38796;42.702;23.306;2023-04-03T07:32:46;15.80;;;2.50;;
52922;SDS011;38796;42.702;23.306;2023-04-03T07:34:44;0.90;;;0.88;;
52922;SDS011;38796;42.702;23.306;2023-04-03T07:36:43;3.65;;;1.20;;
52922;SDS011;38796;42.702;23.306;2023-04-03T07:38:41;2.90;;;1.40;;
52922;SDS011;38796;42.702;23.306;2023-04-03T07:40:39;4.00;;;1.52;;
52922;SDS011;38796;42.702;23.306;2023-04-03T07:42:37;4.45;;;1.73;;
52922;SDS011;38796;42.702;23.306;2023-04-03T07:44:35;11.98;;;2.22;;
52922;SDS011;38796;42.702;23.306;2023-04-03T07:46:34;5.95;;;1.90;;
52922;SDS011;38796;42.702;23.306;2023-04-03T07:48:31;5.97;;;2.08;;
52922;SDS011;38796;42.702;23.306;2023-04-03T07:50:31;3.75;;;1.70;;
52922;SDS011;38796;42.702;23.306;2023-04-03T07:52:30;4.13;;;1.73;;
52922;SDS011;38796;42.702;23.306;2023-04-03T07:54:28;4.18;;;1.02;;
52922;SDS011;38796;42.702;23.306;2023-04-03T07:56:26;6.45;;;1.52;;
52922;SDS011;38796;42.702;23.306;2023-04-03T07:58:24;1.85;;;1.08;;
52922;SDS011;38796;42.702;23.306;2023-04-03T08:00:22;4.63;;;1.88;;
52922;SDS011;38796;42.702;23.306;2023-04-03T08:02:21;16.10;;;2.10;;
52922;SDS011;38796;42.702;23.306;2023-04-03T08:04:19;5.40;;;1.33;;
52922;SDS011;38796;42.702;23.306;2023-04-03T08:06:17;1.90;;;1.30;;
52922;SDS011;38796;42.702;23.306;2023-04-03T08:08:30;1.42;;;1.00;;
52922;SDS011;38796;42.702;23.306;2023-04-03T08:10:29;3.70;;;1.23;;
52922;SDS011;38796;42.702;23.306;2023-04-03T08:12:27;3.78;;;0.73;;
52922;SDS011;38796;42.702;23.306;2023-04-03T08:14:26;8.90;;;0.70;;
52922;SDS011;38796;42.702;23.306;2023-04-03T08:16:24;1.27;;;0.77;;
52922;SDS011;38796;42.702;23.306;2023-04-03T08:18:23;2.10;;;1.02;;
52922;SDS011;38796;42.702;23.306;2023-04-03T08:20:23;3.72;;;1.48;;
52922;SDS011;38796;42.702;23.306;2023-04-03T08:22:21;0.95;;;0.60;;
52922;SDS011;38796;42.702;23.306;2023-04-03T08:24:21;1.67;;;0.65;;
52922;SDS011;38796;42.702;23.306;2023-04-03T08:26:19;1.23;;;0.88;;
52922;SDS011;38796;42.702;23.306;2023-04-03T08:28:17;1.70;;;0.75;;
52922;SDS011;38796;42.702;23.306;2023-04-03T08:30:15;2.78;;;1.17;;
52922;SDS011;38796;42.702;23.306;2023-04-03T08:32:14;5.82;;;2.13;;
52922;SDS011;38796;42.702;23.306;2023-04-03T08:34:12;1.10;;;0.63;;
52922;SDS011;38796;42.702;23.306;2023-04-03T08:36:18;2.30;;;0.80;;
52922;SDS011;38796;42.702;23.306;2023-04-03T08:38:17;7.25;;;1.25;;
52922;SDS011;38796;42.702;23.306;2023-04-03T08:40:16;4.22;;;1.23;;
52922;SDS011;38796;42.702;23.306;2023-04-03T08:42:16;4.63;;;1.60;;
52922;SDS011;38796;42.702;23.306;2023-04-03T08:44:19;1.73;;;1.25;;
52922;SDS011;38796;42.702;23.306;2023-04-03T08:46:19;4.28;;;1.17;;
52922;SDS011;38796;42.702;23.306;2023-04-03T08:48:20;44.25;;;19.70;;
52922;SDS011;38796;42.702;23.306;2023-04-03T08:50:28;58.58;;;19.02;;
52922;SDS011;38796;42.702;23.306;2023-04-03T08:52:30;32.85;;;16.13;;
52922;SDS011;38796;42.702;23.306;2023-04-03T08:54:30;10.27;;;5.07;;
52922;SDS011;38796;42.702;23.306;2023-04-03T08:56:32;5.85;;;3.45;;
52922;SDS011;38796;42.702;23.306;2023-04-03T08:58:33;3.75;;;1.85;;
52922;SDS011;38796;42.702;23.306;2023-04-03T09:00:37;2.83;;;1.35;;
52922;SDS011;38796;42.702;23.306;2023-04-03T09:02:41;3.72;;;1.88;;
52922;SDS011;38796;42.702;23.306;2023-04-03T09:04:39;8.60;;;2.05;;
52922;SDS011;38796;42.702;23.306;2023-04-03T09:06:37;3.22;;;1.45;;
52922;SDS011;38796;42.702;23.306;2023-04-03T09:08:36;3.83;;;1.38;;
52922;SDS011;38796;42.702;23.306;2023-04-03T09:10:37;1.13;;;0.73;;
52922;SDS011;38796;42.702;23.306;2023-04-03T09:12:41;2.55;;;1.58;;
52922;SDS011;38796;42.702;23.306;2023-04-03T09:14:41;2.20;;;1.25;;
52922;SDS011;38796;42.702;23.306;2023-04-03T09:16:43;4.63;;;1.27;;
52922;SDS011;38796;42.702;23.306;2023-04-03T09:18:44;5.57;;;0.98;;
52922;SDS011;38796;42.702;23.306;2023-04-03T09:20:45;6.10;;;1.35;;
52922;SDS011;38796;42.702;23.306;2023-04-03T09:22:44;2.45;;;1.48;;
52922;SDS011;38796;42.702;23.306;2023-04-03T09:26:46;3.53;;;2.05;;
52922;SDS011;38796;42.702;23.306;2023-04-03T09:28:48;7.30;;;1.20;;
52922;SDS011;38796;42.702;23.306;2023-04-03T09:30:47;2.47;;;0.80;;
52922;SDS011;38796;42.702;23.306;2023-04-03T09:32:45;1.85;;;0.68;;
52922;SDS011;38796;42.702;23.306;2023-04-03T09:34:43;2.95;;;1.42;;
52922;SDS011;38796;42.702;23.306;2023-04-03T09:36:43;3.70;;;1.15;;
52922;SDS011;38796;42.702;23.306;2023-04-03T09:38:42;2.05;;;1.05;;
52922;SDS011;38796;42.702;23.306;2023-04-03T09:40:40;3.83;;;1.70;;
52922;SDS011;38796;42.702;23.306;2023-04-03T09:42:40;3.65;;;1.25;;
52922;SDS011;38796;42.702;23.306;2023-04-03T09:44:52;4.60;;;1.75;;
52922;SDS011;38796;42.702;23.306;2023-04-03T09:46:51;3.33;;;1.33;;
52922;SDS011;38796;42.702;23.306;2023-04-03T09:48:49;3.83;;;2.30;;
52922;SDS011;38796;42.702;23.306;2023-04-03T09:51:03;2.90;;;1.70;;
52922;SDS011;38796;42.702;23.306;2023-04-03T09:53:05;24.25;;;8.20;;
52922;SDS011;38796;42.702;23.306;2023-04-03T09:55:06;9.50;;;3.83;;
52922;SDS011;38796;42.702;23.306;2023-04-03T09:57:09;6.10;;;3.20;;
52922;SDS011;38796;42.702;23.306;2023-04-03T09:59:12;10.80;;;3.33;;
52922;SDS011;38796;42.702;23.306;2023-04-03T10:01:22;3.97;;;1.88;;
52922;SDS011;38796;42.702;23.306;2023-04-03T10:03:23;16.45;;;5.78;;
52922;SDS011;38796;42.702;23.306;2023-04-03T10:05:28;20.85;;;9.85;;
52922;SDS011;38796;42.702;23.306;2023-04-03T10:07:31;23.33;;;8.77;;
52922;SDS011;38796;42.702;23.306;2023-04-03T10:09:30;4.68;;;2.90;;
52922;SDS011;38796;42.702;23.306;2023-04-03T10:11:29;12.63;;;7.15;;
52922;SDS011;38796;42.702;23.306;2023-04-03T10:13:27;4.43;;;2.42;;
52922;SDS011;38796;42.702;23.306;2023-04-03T10:15:26;4.75;;;1.73;;
52922;SDS011;38796;42.702;23.306;2023-04-03T10:17:29;14.82;;;1.92;;
52922;SDS011;38796;42.702;23.306;2023-04-03T10:19:32;3.65;;;1.42;;
52922;SDS011;38796;42.702;23.306;2023-04-03T10:21:34;3.60;;;0.80;;
52922;SDS011;38796;42.702;23.306;2023-04-03T10:23:36;2.58;;;1.77;;
52922;SDS011;38796;42.702;23.306;2023-04-03T10:25:38;3.78;;;0.93;;
52922;SDS011;38796;42.702;23.306;2023-04-03T10:27:42;1.55;;;0.80;;
52922;SDS011;38796;42.702;23.306;2023-04-03T10:29:43;8.63;;;1.67;;
52922;SDS011;38796;42.702;23.306;2023-04-03T10:31:44;1.70;;;1.05;;
52922;SDS011;38796;42.702;23.306;2023-04-03T10:33:48;12.45;;;0.98;;
52922;SDS011;38796;42.702;23.306;2023-04-03T10:35:50;5.70;;;1.35;;
52922;SDS011;38796;42.702;23.306;2023-04-03T10:37:57;1.17;;;0.47;;
52922;SDS011;38796;42.702;23.306;2023-04-03T10:39:59;2.40;;;1.50;;
52922;SDS011;38796;42.702;23.306;2023-04-03T10:42:00;2.20;;;1.20;;
52922;SDS011;38796;42.702;23.306;2023-04-03T10:44:14;2.58;;;0.55;;
52922;SDS011;38796;42.702;23.306;2023-04-03T10:46:15;1.13;;;0.50;;
52922;SDS011;38796;42.702;23.306;2023-04-03T10:48:15;0.82;;;0.20;;
52922;SDS011;38796;42.702;23.306;2023-04-03T10:50:25;2.22;;;1.20;;
52922;SDS011;38796;42.702;23.306;2023-04-03T10:52:25;7.82;;;0.70;;
52922;SDS011;38796;42.702;23.306;2023-04-03T10:54:27;0.88;;;0.52;;
52922;SDS011;38796;42.702;23.306;2023-04-03T10:56:31;12.52;;;5.97;;
52922;SDS011;38796;42.702;23.306;2023-04-03T10:58:30;56.88;;;18.98;;
52922;SDS011;38796;42.702;23.306;2023-04-03T11:00:34;21.05;;;7.40;;
52922;SDS011;38796;42.702;23.306;2023-04-03T11:02:35;12.27;;;4.22;;
52922;SDS011;38796;42.702;23.306;2023-04-03T11:04:35;1.05;;;0.70;;
52922;SDS011;38796;42.702;23.306;2023-04-03T11:06:36;2.58;;;0.63;;
52922;SDS011;38796;42.702;23.306;2023-04-03T11:08:37;1.30;;;0.75;;
52922;SDS011;38796;42.702;23.306;2023-04-03T11:10:37;6.15;;;1.13;;
52922;SDS011;38796;42.702;23.306;2023-04-03T11:12:40;0.68;;;0.20;;
52922;SDS011;38796;42.702;23.306;2023-04-03T11:14:40;10.00;;;0.50;;
52922;SDS011;38796;42.702;23.306;2023-04-03T11:16:39;3.45;;;1.05;;
52922;SDS011;38796;42.702;23.306;2023-04-03T11:18:51;17.98;;;2.38;;
52922;SDS011;38796;42.702;23.306;2023-04-03T11:20:53;8.13;;;4.70;;
52922;SDS011;38796;42.702;23.306;2023-04-03T11:22:58;2.38;;;1.20;;
52922;SDS011;38796;42.702;23.306;2023-04-03T11:25:02;3.75;;;1.40;;
52922;SDS011;38796;42.702;23.306;2023-04-03T11:27:01;1.98;;;0.65;;
52922;SDS011;38796;42.702;23.306;2023-04-03T11:29:01;2.13;;;1.05;;
52922;SDS011;38796;42.702;23.306;2023-04-03T11:31:02;3.47;;;2.00;;
52922;SDS011;38796;42.702;23.306;2023-04-03T11:35:23;2.47;;;0.63;;
52922;SDS011;38796;42.702;23.306;2023-04-03T11:37:27;10.07;;;1.52;;
52922;SDS011;38796;42.702;23.306;2023-04-03T11:39:28;0.30;;;0.30;;
52922;SDS011;38796;42.702;23.306;2023-04-03T11:41:27;6.95;;;1.77;;
52922;SDS011;38796;42.702;23.306;2023-04-03T11:43:26;0.55;;;0.30;;
52922;SDS011;38796;42.702;23.306;2023-04-03T11:45:29;0.50;;;0.22;;
52922;SDS011;38796;42.702;23.306;2023-04-03T11:49:58;0.30;;;0.00;;
52922;SDS011;38796;42.702;23.306;2023-04-03T11:51:57;1.67;;;0.20;;
52922;SDS011;38796;42.702;23.306;2023-04-03T11:53:55;0.15;;;0.00;;
52922;SDS011;38796;42.702;23.306;2023-04-03T11:56:30;0.20;;;0.10;;
52922;SDS011;38796;42.702;23.306;2023-04-03T11:58:30;0.30;;;0.10;;
52922;SDS011;38796;42.702;23.306;2023-04-03T12:00:47;0.80;;;0.10;;